createdAt,value
2017-05-31T00:00:09.983Z,19.4
2017-05-31T00:01:12.826Z,19.4
2017-05-31T00:02:15.780Z,19.4
2017-05-31T00:03:18.490Z,19.3
2017-05-31T00:04:21.202Z,19.3
2017-05-31T00:05:23.916Z,19.3
2017-05-31T00:06:27.268Z,19.3
2017-05-31T00:07:30.227Z,19.3
2017-05-31T00:08:32.566Z,19.3
2017-05-31T00:09:35.403Z,19.3
2017-05-31T00:10:38.240Z,19.3
2017-05-31T00:11:41.083Z,19.3
2017-05-31T00:12:44.179Z,19.3
2017-05-31T00:13:47.017Z,19.3
2017-05-31T00:14:49.862Z,19.3
2017-05-31T00:15:52.711Z,19.3
2017-05-31T00:16:55.556Z,19.3
2017-05-31T00:17:58.152Z,19.3
2017-05-31T00:19:00.999Z,19.2
2017-05-31T00:20:03.846Z,19.2
2017-05-31T00:21:06.683Z,19.2
2017-05-31T00:22:09.391Z,19.2
2017-05-31T00:23:12.535Z,19.2
2017-05-31T00:24:14.872Z,19.2
2017-05-31T00:25:17.951Z,19.2
2017-05-31T00:26:20.808Z,19.2
2017-05-31T00:27:23.653Z,19.1
2017-05-31T00:28:26.750Z,19.2
2017-05-31T00:29:29.353Z,19.2
2017-05-31T00:30:32.058Z,19.1
2017-05-31T00:31:34.764Z,19.1
2017-05-31T00:32:37.604Z,19.1
2017-05-31T00:33:40.750Z,19.1
2017-05-31T00:34:44.138Z,19.1
2017-05-31T00:35:45.970Z,19.1
2017-05-31T00:36:49.183Z,19.1
2017-05-31T00:37:52.022Z,19.1
2017-05-31T00:38:55.114Z,19
2017-05-31T00:39:57.314Z,19
2017-05-31T00:41:00.525Z,19
2017-05-31T00:42:03.368Z,19
2017-05-31T00:43:06.208Z,19.1
2017-05-31T00:44:08.809Z,19.1
2017-05-31T00:45:11.647Z,19
2017-05-31T00:46:14.489Z,19
2017-05-31T00:47:17.335Z,19
2017-05-31T00:48:20.728Z,19
2017-05-31T00:49:23.368Z,19
2017-05-31T00:50:25.711Z,18.9
2017-05-31T00:51:28.279Z,18.9
2017-05-31T00:52:31.488Z,18.9
2017-05-31T00:53:34.197Z,18.8
2017-05-31T00:54:37.290Z,18.8
2017-05-31T00:55:39.627Z,18.8
2017-05-31T00:56:42.466Z,18.8
2017-05-31T00:57:45.311Z,18.8
2017-05-31T00:58:48.017Z,18.9
2017-05-31T00:59:50.982Z,18.8
2017-05-31T01:00:54.375Z,18.9
2017-05-31T01:01:56.589Z,18.8
2017-05-31T01:02:59.296Z,18.8
2017-05-31T01:04:02.194Z,18.8
2017-05-31T01:05:05.153Z,18.8
2017-05-31T01:06:07.994Z,18.8
2017-05-31T01:07:10.704Z,18.8
2017-05-31T01:08:13.419Z,18.8
2017-05-31T01:09:16.260Z,18.8
2017-05-31T01:10:19.218Z,18.9
2017-05-31T01:11:22.062Z,18.9
2017-05-31T01:12:24.910Z,18.8
2017-05-31T01:13:27.613Z,18.8
2017-05-31T01:14:30.510Z,18.8
2017-05-31T01:15:33.473Z,18.8
2017-05-31T01:16:36.317Z,18.8
2017-05-31T01:17:39.023Z,18.8
2017-05-31T01:18:41.861Z,18.8
2017-05-31T01:19:44.699Z,18.8
2017-05-31T01:20:47.789Z,18.8
2017-05-31T01:21:50.132Z,18.8
2017-05-31T01:22:52.840Z,18.7
2017-05-31T01:23:55.879Z,18.8
2017-05-31T01:24:58.775Z,18.8
2017-05-31T01:26:01.788Z,18.8
2017-05-31T01:27:03.994Z,18.8
2017-05-31T01:29:10.127Z,18.7
2017-05-31T01:30:12.834Z,18.8
2017-05-31T01:31:15.795Z,18.8
2017-05-31T01:32:18.640Z,18.8
2017-05-31T01:33:21.347Z,18.8
2017-05-31T01:34:24.056Z,18.7
2017-05-31T01:35:26.902Z,18.6
2017-05-31T01:36:29.915Z,18.6
2017-05-31T01:37:32.624Z,18.7
2017-05-31T01:38:35.334Z,18.6
2017-05-31T01:39:38.174Z,18.6
2017-05-31T01:40:41.014Z,18.6
2017-05-31T01:41:44.162Z,18.6
2017-05-31T01:42:46.498Z,18.6
2017-05-31T01:43:49.340Z,18.6
2017-05-31T01:44:52.178Z,18.6
2017-05-31T01:46:58.189Z,18.6
2017-05-31T01:48:00.397Z,18.6
2017-05-31T01:49:03.745Z,18.5
2017-05-31T01:50:05.950Z,18.5
2017-05-31T01:51:09.296Z,18.5
2017-05-31T01:52:12.391Z,18.5
2017-05-31T01:53:14.598Z,18.5
2017-05-31T01:54:17.433Z,18.5
2017-05-31T01:55:20.646Z,18.5
2017-05-31T01:56:22.990Z,18.4
2017-05-31T01:57:26.085Z,18.5
2017-05-31T01:58:28.929Z,18.4
2017-05-31T01:59:31.771Z,18.4
2017-05-31T02:00:34.612Z,18.4
2017-05-31T02:01:37.458Z,18.5
2017-05-31T02:02:40.547Z,18.5
2017-05-31T02:03:42.884Z,18.5
2017-05-31T02:04:45.720Z,18.5
2017-05-31T02:05:48.558Z,18.5
2017-05-31T02:07:54.568Z,18.3
2017-05-31T02:08:57.455Z,18.3
2017-05-31T02:09:59.528Z,18.3
2017-05-31T02:11:02.239Z,18.2
2017-05-31T02:12:05.449Z,18.3
2017-05-31T02:13:08.274Z,18.3
2017-05-31T02:14:10.983Z,18.3
2017-05-31T02:15:13.822Z,18.3
2017-05-31T02:16:16.710Z,18.1
2017-05-31T02:17:19.547Z,18.1
2017-05-31T02:18:22.694Z,18.1
2017-05-31T02:19:25.030Z,18.2
2017-05-31T02:20:27.888Z,18.2
2017-05-31T02:22:33.647Z,18.1
2017-05-31T02:23:36.748Z,18.1
2017-05-31T02:24:39.087Z,18.2
2017-05-31T02:25:41.797Z,18.1
2017-05-31T02:26:44.638Z,18.1
2017-05-31T02:27:47.339Z,18.1
2017-05-31T02:28:50.429Z,18.2
2017-05-31T02:30:55.677Z,18.1
2017-05-31T02:31:58.758Z,18.2
2017-05-31T02:33:01.602Z,18.1
2017-05-31T02:34:04.695Z,18.2
2017-05-31T02:35:07.090Z,18.1
2017-05-31T02:36:09.933Z,18.1
2017-05-31T02:37:12.777Z,18.1
2017-05-31T02:38:15.415Z,18.1
2017-05-31T02:39:18.565Z,18.1
2017-05-31T02:40:20.904Z,18.1
2017-05-31T02:41:23.750Z,18.1
2017-05-31T02:42:26.596Z,18
2017-05-31T02:43:29.440Z,18
2017-05-31T02:44:32.531Z,18
2017-05-31T02:45:35.371Z,18.1
2017-05-31T02:46:37.712Z,18.1
2017-05-31T02:47:40.558Z,18.1
2017-05-31T02:48:43.309Z,18
2017-05-31T02:49:46.397Z,18
2017-05-31T02:50:49.247Z,18
2017-05-31T02:51:52.089Z,17.9
2017-05-31T02:52:54.936Z,17.9
2017-05-31T02:53:57.518Z,17.9
2017-05-31T02:55:00.618Z,17.9
2017-05-31T02:56:02.961Z,17.9
2017-05-31T02:57:05.803Z,18
2017-05-31T02:59:11.560Z,17.8
2017-05-31T03:00:14.663Z,17.8
2017-05-31T03:01:16.881Z,17.8
2017-05-31T03:02:19.726Z,17.8
2017-05-31T03:03:22.575Z,17.8
2017-05-31T03:04:25.428Z,17.8
2017-05-31T03:05:28.396Z,17.8
2017-05-31T03:06:31.241Z,17.8
2017-05-31T03:07:34.085Z,17.8
2017-05-31T03:08:36.928Z,17.8
2017-05-31T03:09:39.270Z,17.8
2017-05-31T03:10:42.600Z,17.8
2017-05-31T03:11:44.949Z,17.8
2017-05-31T03:12:47.793Z,17.8
2017-05-31T03:13:50.641Z,17.7
2017-05-31T03:14:53.495Z,17.7
2017-05-31T03:15:57.157Z,17.7
2017-05-31T03:16:58.994Z,17.7
2017-05-31T03:18:01.711Z,17.7
2017-05-31T03:19:04.425Z,17.6
2017-05-31T03:20:07.001Z,17.7
2017-05-31T03:21:10.609Z,17.7
2017-05-31T03:22:13.154Z,17.7
2017-05-31T03:23:15.870Z,17.8
2017-05-31T03:24:18.712Z,17.8
2017-05-31T03:25:21.554Z,17.7
2017-05-31T03:26:24.652Z,17.7
2017-05-31T03:27:26.994Z,17.7
2017-05-31T03:28:30.401Z,17.6
2017-05-31T03:29:32.741Z,17.7
2017-05-31T03:30:35.456Z,17.7
2017-05-31T03:31:38.553Z,17.7
2017-05-31T03:32:41.260Z,17.7
2017-05-31T03:33:43.603Z,17.7
2017-05-31T03:34:46.448Z,17.7
2017-05-31T03:35:49.297Z,17.6
2017-05-31T03:36:52.396Z,17.6
2017-05-31T03:37:54.750Z,17.6
2017-05-31T03:38:57.597Z,17.6
2017-05-31T03:41:03.354Z,17.6
2017-05-31T03:42:06.184Z,17.6
2017-05-31T03:43:08.893Z,17.6
2017-05-31T03:44:11.604Z,17.7
2017-05-31T03:45:14.454Z,17.6
2017-05-31T03:46:17.302Z,17.6
2017-05-31T03:47:20.398Z,17.6
2017-05-31T03:48:23.110Z,17.6
2017-05-31T03:49:25.959Z,17.7
2017-05-31T03:50:28.309Z,17.6
2017-05-31T03:51:31.161Z,17.7
2017-05-31T03:52:34.315Z,17.6
2017-05-31T03:53:37.035Z,17.7
2017-05-31T03:54:39.883Z,17.6
2017-05-31T03:55:42.733Z,17.6
2017-05-31T03:56:45.080Z,17.6
2017-05-31T03:57:48.174Z,17.6
2017-05-31T03:58:50.886Z,17.6
2017-05-31T03:59:53.731Z,17.6
2017-05-31T04:00:56.445Z,17.5
2017-05-31T04:01:59.291Z,17.5
2017-05-31T04:03:02.444Z,17.5
2017-05-31T04:04:04.793Z,17.6
2017-05-31T04:05:07.641Z,17.6
2017-05-31T04:06:10.218Z,17.6
2017-05-31T04:07:13.432Z,17.6
2017-05-31T04:08:16.031Z,17.6
2017-05-31T04:09:18.881Z,17.6
2017-05-31T04:10:21.589Z,17.6
2017-05-31T04:11:24.437Z,17.6
2017-05-31T04:12:27.155Z,17.6
2017-05-31T04:13:30.251Z,17.6
2017-05-31T04:14:32.590Z,17.6
2017-05-31T04:15:35.192Z,17.6
2017-05-31T04:16:37.959Z,17.7
2017-05-31T04:17:41.172Z,17.7
2017-05-31T04:18:44.266Z,17.7
2017-05-31T04:19:46.609Z,17.6
2017-05-31T04:20:49.455Z,17.6
2017-05-31T04:21:52.299Z,17.6
2017-05-31T04:22:55.145Z,17.6
2017-05-31T04:23:58.110Z,17.7
2017-05-31T04:25:00.824Z,17.6
2017-05-31T04:26:03.670Z,17.6
2017-05-31T04:27:06.014Z,17.6
2017-05-31T04:28:08.866Z,17.6
2017-05-31T04:29:11.876Z,17.6
2017-05-31T04:30:14.724Z,17.6
2017-05-31T04:31:17.443Z,17.7
2017-05-31T04:32:20.291Z,17.7
2017-05-31T04:33:23.200Z,17.7
2017-05-31T04:34:25.798Z,17.7
2017-05-31T04:35:28.642Z,17.8
2017-05-31T04:36:31.490Z,17.7
2017-05-31T04:37:34.335Z,17.7
2017-05-31T04:38:37.046Z,17.8
2017-05-31T04:39:40.075Z,17.7
2017-05-31T04:40:42.417Z,17.7
2017-05-31T04:41:45.128Z,17.7
2017-05-31T04:42:47.974Z,17.7
2017-05-31T04:43:50.817Z,17.7
2017-05-31T04:44:53.920Z,17.7
2017-05-31T04:45:56.769Z,17.7
2017-05-31T04:46:59.613Z,17.7
2017-05-31T04:48:02.061Z,17.7
2017-05-31T04:49:04.903Z,17.8
2017-05-31T04:50:07.863Z,17.7
2017-05-31T04:51:10.706Z,17.7
2017-05-31T04:52:13.411Z,17.7
2017-05-31T04:53:16.301Z,17.7
2017-05-31T04:54:18.877Z,17.7
2017-05-31T04:55:21.974Z,17.7
2017-05-31T04:56:24.824Z,17.7
2017-05-31T04:57:27.534Z,17.7
2017-05-31T04:58:30.241Z,17.6
2017-05-31T04:59:33.094Z,17.7
2017-05-31T05:00:36.189Z,17.7
2017-05-31T05:01:38.531Z,17.6
2017-05-31T05:02:41.373Z,17.6
2017-05-31T05:03:44.085Z,17.6
2017-05-31T05:04:46.933Z,17.6
2017-05-31T05:05:49.903Z,17.6
2017-05-31T05:06:52.752Z,17.6
2017-05-31T05:07:55.463Z,17.6
2017-05-31T05:08:58.310Z,17.6
2017-05-31T05:10:01.153Z,17.6
2017-05-31T05:11:04.248Z,17.6
2017-05-31T05:12:06.590Z,17.6
2017-05-31T05:13:09.440Z,17.7
2017-05-31T05:14:12.283Z,17.7
2017-05-31T05:15:15.501Z,17.7
2017-05-31T05:16:17.962Z,17.7
2017-05-31T05:17:20.808Z,17.7
2017-05-31T05:18:23.513Z,17.8
2017-05-31T05:19:26.357Z,17.8
2017-05-31T05:20:29.205Z,17.8
2017-05-31T05:21:32.303Z,17.8
2017-05-31T05:22:35.150Z,17.8
2017-05-31T05:23:37.998Z,17.8
2017-05-31T05:24:40.847Z,17.8
2017-05-31T05:25:43.692Z,17.8
2017-05-31T05:26:46.354Z,17.7
2017-05-31T05:28:51.981Z,17.7
2017-05-31T05:29:54.830Z,17.8
2017-05-31T05:30:57.541Z,17.7
2017-05-31T05:32:00.640Z,17.7
2017-05-31T05:33:02.983Z,17.8
2017-05-31T05:34:05.824Z,17.7
2017-05-31T05:35:08.669Z,17.7
2017-05-31T05:36:11.612Z,17.8
2017-05-31T05:37:14.712Z,17.8
2017-05-31T05:38:18.123Z,17.8
2017-05-31T05:39:19.842Z,17.8
2017-05-31T05:40:23.195Z,17.8
2017-05-31T05:41:26.037Z,17.8
2017-05-31T05:42:29.000Z,17.8
2017-05-31T05:43:31.339Z,17.8
2017-05-31T05:44:34.745Z,17.8
2017-05-31T05:45:37.087Z,17.9
2017-05-31T05:46:39.930Z,17.9
2017-05-31T05:47:43.024Z,17.9
2017-05-31T05:48:45.872Z,17.9
2017-05-31T05:49:48.584Z,18
2017-05-31T05:50:51.432Z,18
2017-05-31T05:51:54.276Z,18
2017-05-31T05:52:57.371Z,17.9
2017-05-31T05:54:00.214Z,17.8
2017-05-31T05:55:03.064Z,17.9
2017-05-31T05:57:08.058Z,17.9
2017-05-31T05:58:11.524Z,18
2017-05-31T05:59:14.370Z,18
2017-05-31T06:01:20.134Z,18
2017-05-31T06:02:22.980Z,18
2017-05-31T06:03:26.079Z,18
2017-05-31T06:04:28.419Z,18
2017-05-31T06:05:30.999Z,18
2017-05-31T06:06:34.216Z,18
2017-05-31T06:07:37.064Z,18
2017-05-31T06:08:40.158Z,18
2017-05-31T06:09:43.001Z,18
2017-05-31T06:10:45.844Z,18
2017-05-31T06:12:51.605Z,18
2017-05-31T06:13:54.568Z,18
2017-05-31T06:14:57.419Z,18.1
2017-05-31T06:16:00.263Z,18.1
2017-05-31T06:17:03.111Z,18.1
2017-05-31T06:18:05.833Z,18.1
2017-05-31T06:19:08.669Z,18.1
2017-05-31T06:20:11.379Z,18.1
2017-05-31T06:21:14.728Z,18.1
2017-05-31T06:22:17.570Z,18.1
2017-05-31T06:23:20.282Z,18.1
2017-05-31T06:24:23.384Z,18.1
2017-05-31T06:25:26.091Z,18.1
2017-05-31T06:26:28.938Z,18.1
2017-05-31T06:27:31.648Z,18.1
2017-05-31T06:28:34.676Z,18.1
2017-05-31T06:29:37.776Z,18.1
2017-05-31T06:30:40.625Z,18.1
2017-05-31T06:31:43.485Z,18.1
2017-05-31T06:32:46.333Z,18.1
2017-05-31T06:33:49.175Z,18.1
2017-05-31T06:34:52.274Z,18.1
2017-05-31T06:35:55.162Z,18.1
2017-05-31T06:36:57.502Z,18.1
2017-05-31T06:38:00.855Z,18
2017-05-31T06:39:03.701Z,18
2017-05-31T06:40:06.859Z,18
2017-05-31T06:41:08.932Z,18
2017-05-31T06:43:15.061Z,18
2017-05-31T06:44:17.773Z,18
2017-05-31T06:45:20.868Z,18.1
2017-05-31T06:46:23.714Z,18.1
2017-05-31T06:47:26.435Z,18.1
2017-05-31T06:48:29.286Z,18
2017-05-31T06:49:32.132Z,18
2017-05-31T06:50:35.601Z,18
2017-05-31T06:51:37.943Z,18
2017-05-31T06:52:40.788Z,18.1
2017-05-31T06:54:46.414Z,18
2017-05-31T06:55:49.519Z,18
2017-05-31T06:57:55.142Z,18
2017-05-31T06:58:57.984Z,18
2017-05-31T07:00:00.827Z,18
2017-05-31T07:01:03.925Z,18
2017-05-31T07:03:09.683Z,18
2017-05-31T07:04:12.529Z,18
2017-05-31T07:05:15.241Z,18
2017-05-31T07:06:18.338Z,18
2017-05-31T07:07:21.186Z,18
2017-05-31T07:08:24.033Z,18
2017-05-31T07:09:26.882Z,18
2017-05-31T07:10:29.729Z,18
2017-05-31T07:11:32.832Z,18
2017-05-31T07:12:35.176Z,18
2017-05-31T07:13:37.886Z,18
2017-05-31T07:14:41.101Z,18
2017-05-31T07:15:43.945Z,18
2017-05-31T07:16:46.771Z,18
2017-05-31T07:17:49.617Z,18
2017-05-31T07:18:52.463Z,18
2017-05-31T07:19:55.313Z,18
2017-05-31T07:20:58.160Z,18
2017-05-31T07:22:01.256Z,18
2017-05-31T07:23:03.972Z,18.1
2017-05-31T07:24:06.823Z,18.1
2017-05-31T07:25:09.675Z,18.1
2017-05-31T07:26:12.257Z,18.1
2017-05-31T07:27:15.913Z,18.1
2017-05-31T07:28:18.260Z,18.1
2017-05-31T07:29:21.720Z,18.1
2017-05-31T07:30:23.987Z,18.1
2017-05-31T07:31:26.835Z,18.1
2017-05-31T07:32:29.934Z,18.1
2017-05-31T07:33:32.782Z,18.1
2017-05-31T07:34:35.490Z,18.2
2017-05-31T07:35:38.337Z,18.2
2017-05-31T07:36:41.184Z,18.3
2017-05-31T07:37:44.283Z,18.3
2017-05-31T07:39:50.052Z,18.3
2017-05-31T07:40:52.897Z,18.3
2017-05-31T07:41:55.610Z,18.3
2017-05-31T07:42:58.436Z,18.3
2017-05-31T07:44:01.150Z,18.3
2017-05-31T07:45:03.866Z,18.3
2017-05-31T07:46:07.082Z,18.4
2017-05-31T07:47:09.793Z,18.4
2017-05-31T07:48:12.892Z,18.3
2017-05-31T07:49:15.740Z,18.3
2017-05-31T07:50:18.589Z,18.3
2017-05-31T07:51:21.307Z,18.3
2017-05-31T07:52:24.519Z,18.3
2017-05-31T07:53:27.501Z,18.3
2017-05-31T07:54:30.347Z,18.3
2017-05-31T07:55:33.248Z,18.3
2017-05-31T07:56:36.091Z,18.4
2017-05-31T07:57:38.800Z,18.5
2017-05-31T07:58:41.896Z,18.5
2017-05-31T07:59:44.739Z,18.5
2017-05-31T08:00:47.581Z,18.5
2017-05-31T08:01:50.424Z,18.6
2017-05-31T08:02:53.886Z,18.5
2017-05-31T08:03:56.483Z,18.5
2017-05-31T08:04:58.826Z,18.5
2017-05-31T08:06:02.042Z,18.5
2017-05-31T08:07:04.893Z,18.6
2017-05-31T08:08:07.733Z,18.6
2017-05-31T08:09:10.699Z,18.6
2017-05-31T08:10:13.415Z,18.6
2017-05-31T08:11:16.685Z,18.6
2017-05-31T08:12:18.903Z,18.6
2017-05-31T08:13:22.253Z,18.6
2017-05-31T08:14:25.353Z,18.7
2017-05-31T08:15:27.573Z,18.8
2017-05-31T08:16:30.924Z,18.8
2017-05-31T08:17:33.772Z,18.8
2017-05-31T08:18:36.624Z,18.8
2017-05-31T08:19:39.726Z,18.8
2017-05-31T08:20:42.571Z,18.8
2017-05-31T08:21:45.156Z,18.8
2017-05-31T08:22:48.004Z,18.9
2017-05-31T08:23:51.352Z,18.9
2017-05-31T08:24:54.450Z,19
2017-05-31T08:25:56.793Z,19
2017-05-31T08:26:59.650Z,19
2017-05-31T08:28:02.502Z,18.9
2017-05-31T08:29:05.719Z,19
2017-05-31T08:30:08.824Z,19
2017-05-31T08:31:11.538Z,19
2017-05-31T08:32:14.244Z,18.9
2017-05-31T08:33:17.093Z,19
2017-05-31T08:34:20.311Z,19
2017-05-31T08:35:23.412Z,18.9
2017-05-31T08:36:26.130Z,18.9
2017-05-31T08:37:28.976Z,18.9
2017-05-31T08:38:31.822Z,19
2017-05-31T08:39:34.530Z,19
2017-05-31T08:40:38.137Z,19
2017-05-31T08:41:40.345Z,19
2017-05-31T08:42:43.558Z,19
2017-05-31T08:43:46.416Z,19.1
2017-05-31T08:44:49.136Z,19.1
2017-05-31T08:45:52.735Z,19.1
2017-05-31T08:46:55.078Z,19.2
2017-05-31T08:47:57.925Z,19.1
2017-05-31T08:49:00.771Z,19.1
2017-05-31T08:50:04.124Z,19.1
2017-05-31T08:51:07.227Z,19.1
2017-05-31T08:52:09.572Z,19.1
2017-05-31T08:53:12.651Z,19.1
2017-05-31T08:54:15.493Z,19.1
2017-05-31T08:55:18.337Z,19
2017-05-31T08:56:21.433Z,19
2017-05-31T08:57:24.005Z,19.1
2017-05-31T08:58:27.094Z,19.1
2017-05-31T08:59:29.940Z,19.1
2017-05-31T09:00:33.034Z,19.2
2017-05-31T09:01:35.997Z,19.2
2017-05-31T09:02:38.838Z,19.2
2017-05-31T09:03:41.678Z,19.2
2017-05-31T09:04:44.388Z,19.1
2017-05-31T09:06:50.770Z,19.2
2017-05-31T09:07:53.615Z,19.2
2017-05-31T09:08:56.460Z,19.2
2017-05-31T09:11:02.224Z,19.3
2017-05-31T09:12:05.319Z,19.4
2017-05-31T09:13:07.894Z,19.4
2017-05-31T09:14:10.976Z,19.4
2017-05-31T09:15:13.830Z,19.3
2017-05-31T09:16:16.405Z,19.3
2017-05-31T09:17:20.004Z,19.3
2017-05-31T09:18:22.910Z,19.4
2017-05-31T09:19:25.755Z,19.4
2017-05-31T09:20:28.597Z,19.4
2017-05-31T09:21:31.441Z,19.5
2017-05-31T09:22:34.544Z,19.5
2017-05-31T09:23:37.389Z,19.5
2017-05-31T09:24:40.102Z,19.5
2017-05-31T09:25:42.819Z,19.5
2017-05-31T09:26:46.168Z,19.5
2017-05-31T09:27:49.271Z,19.5
2017-05-31T09:28:51.986Z,19.5
2017-05-31T09:29:54.832Z,19.5
2017-05-31T09:30:57.679Z,19.5
2017-05-31T09:32:00.523Z,19.5
2017-05-31T09:33:03.624Z,19.5
2017-05-31T09:34:06.333Z,19.5
2017-05-31T09:36:12.591Z,19.5
2017-05-31T09:37:15.437Z,19.6
2017-05-31T09:38:18.311Z,19.6
2017-05-31T09:39:21.154Z,19.7
2017-05-31T09:40:23.868Z,19.7
2017-05-31T09:41:27.085Z,19.7
2017-05-31T09:42:29.940Z,19.6
2017-05-31T09:43:33.452Z,19.6
2017-05-31T09:44:35.661Z,19.6
2017-05-31T09:45:38.511Z,19.6
2017-05-31T09:46:41.869Z,19.6
2017-05-31T09:47:44.721Z,19.6
2017-05-31T09:48:47.871Z,19.6
2017-05-31T09:49:50.447Z,19.6
2017-05-31T09:50:53.158Z,19.6
2017-05-31T09:51:56.504Z,19.7
2017-05-31T09:52:59.214Z,19.7
2017-05-31T09:54:02.313Z,19.7
2017-05-31T09:55:05.212Z,19.7
2017-05-31T09:56:07.788Z,19.7
2017-05-31T09:57:11.567Z,19.7
2017-05-31T09:58:13.910Z,19.7
2017-05-31T09:59:17.005Z,19.7
2017-05-31T10:00:19.854Z,19.7
2017-05-31T10:01:22.702Z,19.7
2017-05-31T10:02:25.419Z,19.8
2017-05-31T10:03:28.766Z,19.8
2017-05-31T10:04:31.859Z,19.8
2017-05-31T10:05:34.067Z,19.8
2017-05-31T10:06:37.414Z,19.9
2017-05-31T10:07:40.261Z,19.9
2017-05-31T10:08:43.167Z,19.9
2017-05-31T10:09:46.321Z,19.9
2017-05-31T10:10:49.170Z,19.9
2017-05-31T10:11:51.883Z,19.9
2017-05-31T10:12:55.094Z,20
2017-05-31T10:13:57.806Z,19.9
2017-05-31T10:15:00.901Z,19.8
2017-05-31T10:16:03.744Z,19.9
2017-05-31T10:17:07.153Z,19.8
2017-05-31T10:18:09.362Z,19.9
2017-05-31T10:19:12.581Z,19.9
2017-05-31T10:20:15.546Z,19.9
2017-05-31T10:21:18.393Z,19.9
2017-05-31T10:22:21.648Z,20
2017-05-31T10:23:23.974Z,20
2017-05-31T10:24:27.190Z,20
2017-05-31T10:25:30.341Z,20
2017-05-31T10:26:33.184Z,20
2017-05-31T10:27:36.026Z,20.1
2017-05-31T10:28:38.871Z,20.1
2017-05-31T10:29:41.717Z,20.1
2017-05-31T10:30:44.909Z,20.1
2017-05-31T10:31:47.756Z,20.1
2017-05-31T10:32:50.610Z,20.1
2017-05-31T10:33:53.455Z,20.1
2017-05-31T10:34:56.298Z,20.2
2017-05-31T10:35:59.906Z,20.2
2017-05-31T10:37:02.247Z,20.2
2017-05-31T10:38:04.956Z,20.2
2017-05-31T10:39:08.311Z,20.2
2017-05-31T10:40:11.025Z,20.3
2017-05-31T10:41:14.492Z,20.3
2017-05-31T10:42:16.840Z,20.3
2017-05-31T10:43:20.185Z,20.4
2017-05-31T10:44:23.033Z,20.4
2017-05-31T10:45:25.746Z,20.3
2017-05-31T10:46:29.081Z,20.3
2017-05-31T10:47:31.801Z,20.3
2017-05-31T10:48:34.651Z,20.3
2017-05-31T10:49:37.502Z,20.2
2017-05-31T10:50:40.351Z,20.3
2017-05-31T10:51:43.953Z,20.2
2017-05-31T10:52:46.167Z,20.3
2017-05-31T10:53:49.380Z,20.3
2017-05-31T10:54:52.224Z,20.2
2017-05-31T10:55:55.067Z,20.3
2017-05-31T10:58:01.313Z,20.3
2017-05-31T10:59:03.892Z,20.3
2017-05-31T11:00:06.607Z,20.3
2017-05-31T11:01:09.962Z,20.2
2017-05-31T11:02:12.814Z,20.2
2017-05-31T11:03:15.914Z,20.2
2017-05-31T11:04:18.763Z,20.2
2017-05-31T11:05:21.479Z,20.2
2017-05-31T11:06:24.329Z,20.2
2017-05-31T11:07:27.413Z,20.2
2017-05-31T11:08:30.514Z,20.2
2017-05-31T11:09:33.365Z,20.2
2017-05-31T11:10:36.079Z,20.2
2017-05-31T11:11:39.163Z,20.1
2017-05-31T11:12:42.010Z,20.1
2017-05-31T11:13:45.122Z,20
2017-05-31T11:14:47.994Z,19.9
2017-05-31T11:15:50.836Z,19.9
2017-05-31T11:16:53.276Z,19.8
2017-05-31T11:17:56.487Z,19.8
2017-05-31T11:18:59.638Z,19.9
2017-05-31T11:20:02.487Z,20
2017-05-31T11:21:05.337Z,20
2017-05-31T11:22:08.108Z,20
2017-05-31T11:23:10.959Z,20
2017-05-31T11:24:14.055Z,20.1
2017-05-31T11:25:16.906Z,20.1
2017-05-31T11:26:19.758Z,20.1
2017-05-31T11:27:22.472Z,20.1
2017-05-31T11:28:25.195Z,20.2
2017-05-31T11:29:28.663Z,20.2
2017-05-31T11:30:31.506Z,20.3
2017-05-31T11:31:34.348Z,20.3
2017-05-31T11:32:37.194Z,20.3
2017-05-31T11:33:39.794Z,20.3
2017-05-31T11:34:42.886Z,20.4
2017-05-31T11:35:45.735Z,20.4
2017-05-31T11:36:48.595Z,20.4
2017-05-31T11:37:51.443Z,20.4
2017-05-31T11:38:54.289Z,20.4
2017-05-31T11:39:57.263Z,20.5
2017-05-31T11:41:00.118Z,20.5
2017-05-31T11:42:02.838Z,20.5
2017-05-31T11:43:06.052Z,20.5
2017-05-31T11:44:08.764Z,20.4
2017-05-31T11:45:12.368Z,20.4
2017-05-31T11:46:14.444Z,20.4
2017-05-31T11:47:17.792Z,20.4
2017-05-31T11:48:20.368Z,20.3
2017-05-31T11:49:23.077Z,20.3
2017-05-31T11:50:27.104Z,20.3
2017-05-31T11:51:29.313Z,20.3
2017-05-31T11:53:35.069Z,20.3
2017-05-31T11:54:37.781Z,20.3
2017-05-31T11:55:40.922Z,20.3
2017-05-31T11:56:43.768Z,20.3
2017-05-31T11:57:47.169Z,20.3
2017-05-31T11:58:49.380Z,20.3
2017-05-31T11:59:52.228Z,20.3
2017-05-31T12:00:55.193Z,20.3
2017-05-31T12:01:57.912Z,20.3
2017-05-31T12:03:01.265Z,20.3
2017-05-31T12:04:03.675Z,20.3
2017-05-31T12:06:10.246Z,20.1
2017-05-31T12:07:12.458Z,20.1
2017-05-31T12:08:15.172Z,20.1
2017-05-31T12:09:18.517Z,20.2
2017-05-31T12:10:21.364Z,20.3
2017-05-31T12:11:24.460Z,20.3
2017-05-31T12:12:26.799Z,20.3
2017-05-31T12:13:30.014Z,20.3
2017-05-31T12:14:32.862Z,20.3
2017-05-31T12:15:35.707Z,20.3
2017-05-31T12:16:38.856Z,20.4
2017-05-31T12:17:41.196Z,20.4
2017-05-31T12:18:44.043Z,20.4
2017-05-31T12:19:46.760Z,20.4
2017-05-31T12:20:50.115Z,20.4
2017-05-31T12:21:52.941Z,20.5
2017-05-31T12:22:55.781Z,20.5
2017-05-31T12:23:58.493Z,20.5
2017-05-31T12:25:01.703Z,20.5
2017-05-31T12:26:04.415Z,20.5
2017-05-31T12:27:07.425Z,20.5
2017-05-31T12:28:10.136Z,20.6
2017-05-31T12:29:12.978Z,20.6
2017-05-31T12:30:16.243Z,20.6
2017-05-31T12:31:18.953Z,20.6
2017-05-31T12:32:21.924Z,20.6
2017-05-31T12:33:25.257Z,20.6
2017-05-31T12:34:27.481Z,20.6
2017-05-31T12:35:30.332Z,20.7
2017-05-31T12:36:33.181Z,20.7
2017-05-31T12:37:36.274Z,20.7
2017-05-31T12:38:39.119Z,20.7
2017-05-31T12:39:41.967Z,20.7
2017-05-31T12:40:44.683Z,20.8
2017-05-31T12:41:47.900Z,20.8
2017-05-31T12:42:50.998Z,20.8
2017-05-31T12:43:53.710Z,20.8
2017-05-31T12:44:56.558Z,20.8
2017-05-31T12:45:59.274Z,20.8
2017-05-31T12:47:02.685Z,20.8
2017-05-31T12:48:05.279Z,20.8
2017-05-31T12:49:07.992Z,20.8
2017-05-31T12:51:14.122Z,20.8
2017-05-31T12:52:16.966Z,20.8
2017-05-31T12:53:19.804Z,20.8
2017-05-31T12:54:22.655Z,20.8
2017-05-31T12:55:25.502Z,20.8
2017-05-31T12:56:28.369Z,20.8
2017-05-31T12:57:31.233Z,20.8
2017-05-31T12:58:34.332Z,20.8
2017-05-31T12:59:37.191Z,20.8
2017-05-31T13:00:39.906Z,20.8
2017-05-31T13:01:42.762Z,20.8
2017-05-31T13:02:45.607Z,20.8
2017-05-31T13:03:48.761Z,20.8
2017-05-31T13:04:51.473Z,20.8
2017-05-31T13:05:54.321Z,20.9
2017-05-31T13:06:57.034Z,20.9
2017-05-31T13:08:00.386Z,21
2017-05-31T13:10:06.400Z,21
2017-05-31T13:11:09.113Z,21
2017-05-31T13:12:11.821Z,21
2017-05-31T13:13:14.664Z,21
2017-05-31T13:14:17.508Z,21
2017-05-31T13:15:20.980Z,21
2017-05-31T13:16:23.379Z,21
2017-05-31T13:17:26.229Z,21
2017-05-31T13:18:29.071Z,21
2017-05-31T13:19:32.152Z,21
2017-05-31T13:20:35.121Z,21
2017-05-31T13:21:37.972Z,21
2017-05-31T13:22:40.820Z,21
2017-05-31T13:23:43.666Z,21
2017-05-31T13:24:46.387Z,21
2017-05-31T13:25:49.991Z,21
2017-05-31T13:26:52.566Z,21
2017-05-31T13:27:55.413Z,21
2017-05-31T13:28:58.253Z,21
2017-05-31T13:30:01.100Z,21
2017-05-31T13:31:04.060Z,21
2017-05-31T13:32:06.910Z,21.1
2017-05-31T13:33:09.751Z,21.1
2017-05-31T13:34:13.098Z,21.1
2017-05-31T13:35:15.947Z,21.1
2017-05-31T13:36:18.911Z,21.1
2017-05-31T13:37:21.758Z,21.1
2017-05-31T13:39:27.243Z,21.1
2017-05-31T13:40:29.964Z,21.1
2017-05-31T13:41:33.566Z,21.2
2017-05-31T13:42:36.412Z,21.2
2017-05-31T13:43:39.255Z,21.2
2017-05-31T13:44:42.107Z,21.2
2017-05-31T13:45:44.821Z,21.2
2017-05-31T13:46:47.917Z,21.2
2017-05-31T13:47:50.626Z,21.2
2017-05-31T13:48:53.473Z,21.2
2017-05-31T13:49:56.320Z,21.2
2017-05-31T13:50:59.672Z,21.2
2017-05-31T13:52:02.766Z,21.2
2017-05-31T13:53:04.839Z,21.2
2017-05-31T13:54:07.913Z,21.1
2017-05-31T13:55:11.133Z,21.1
2017-05-31T13:56:13.984Z,21.1
2017-05-31T13:57:16.946Z,21.1
2017-05-31T13:58:19.656Z,21.1
2017-05-31T13:59:22.233Z,21.1
2017-05-31T14:00:25.584Z,21.1
2017-05-31T14:01:28.438Z,21.1
2017-05-31T14:02:31.542Z,21.1
2017-05-31T14:03:34.388Z,21.1
2017-05-31T14:04:37.241Z,21.1
2017-05-31T14:05:39.954Z,21.1
2017-05-31T14:06:43.301Z,21.1
2017-05-31T14:07:46.402Z,21.1
2017-05-31T14:08:48.748Z,21.1
2017-05-31T14:09:51.597Z,21.2
2017-05-31T14:10:54.863Z,21.1
2017-05-31T14:11:57.717Z,21.2
2017-05-31T14:13:00.736Z,21.1
2017-05-31T14:14:03.581Z,21.2
2017-05-31T14:15:06.430Z,21.2
2017-05-31T14:16:09.278Z,21.2
2017-05-31T14:17:12.126Z,21.2
2017-05-31T14:18:14.956Z,21.2
2017-05-31T14:19:17.667Z,21.2
2017-05-31T14:20:20.881Z,21.2
2017-05-31T14:21:23.965Z,21.2
2017-05-31T14:22:26.811Z,21.2
2017-05-31T14:24:32.688Z,21.3
2017-05-31T14:25:35.533Z,21.3
2017-05-31T14:26:38.245Z,21.3
2017-05-31T14:27:41.093Z,21.3
2017-05-31T14:28:43.940Z,21.3
2017-05-31T14:29:47.094Z,21.3
2017-05-31T14:30:49.982Z,21.3
2017-05-31T14:31:52.557Z,21.3